sensor_id;sensor_type;location;lat;lon;timestamp;pressure;altitude;pressure_sealevel;temperature;humidity
47897;BME280;39629;51.400;5.494;2023-05-21T00:04:40;101659.16;;;12.31;100.00
47897;BME280;39629;51.400;5.494;2023-05-21T00:09:43;101653.88;;;12.31;100.00
47897;BME280;39629;51.400;5.494;2023-05-21T00:14:45;101649.47;;;12.25;100.00
47897;BME280;39629;51.400;5.494;2023-05-21T00:19:46;101643.34;;;12.31;100.00
47897;BME280;39629;51.400;5.494;2023-05-21T00:24:50;101644.16;;;12.10;100.00
47897;BME280;39629;51.400;5.494;2023-05-21T00:29:52;101637.13;;;12.10;100.00
47897;BME280;39629;51.400;5.494;2023-05-21T00:34:53;101643.25;;;12.00;100.00
47897;BME280;39629;51.400;5.494;2023-05-21T00:39:56;101638.81;;;11.98;100.00
47897;BME280;39629;51.400;5.494;2023-05-21T00:44:58;101638.75;;;11.85;100.00
47897;BME280;39629;51.400;5.494;2023-05-21T00:50:03;101626.50;;;11.89;100.00
47897;BME280;39629;51.400;5.494;2023-05-21T00:55:08;101629.13;;;11.89;100.00
47897;BME280;39629;51.400;5.494;2023-05-21T01:00:10;101622.13;;;11.92;100.00
47897;BME280;39629;51.400;5.494;2023-05-21T01:05:14;101634.44;;;11.97;100.00
47897;BME280;39629;51.400;5.494;2023-05-21T01:10:16;101625.56;;;11.85;100.00
47897;BME280;39629;51.400;5.494;2023-05-21T01:15:18;101634.41;;;11.90;100.00
47897;BME280;39629;51.400;5.494;2023-05-21T01:20:22;101625.63;;;11.96;100.00
47897;BME280;39629;51.400;5.494;2023-05-21T01:25:25;101630.88;;;11.87;100.00
47897;BME280;39629;51.400;5.494;2023-05-21T01:30:27;101628.25;;;11.88;100.00
47897;BME280;39629;51.400;5.494;2023-05-21T01:35:31;101621.22;;;11.92;100.00
47897;BME280;39629;51.400;5.494;2023-05-21T01:40:39;101628.25;;;11.91;100.00
47897;BME280;39629;51.400;5.494;2023-05-21T01:45:42;101615.94;;;11.93;100.00
47897;BME280;39629;51.400;5.494;2023-05-21T01:50:46;101621.22;;;11.92;100.00
47897;BME280;39629;51.400;5.494;2023-05-21T01:55:49;101621.22;;;11.93;100.00
47897;BME280;39629;51.400;5.494;2023-05-21T02:00:51;101611.56;;;11.97;100.00
47897;BME280;39629;51.400;5.494;2023-05-21T02:05:52;101608.94;;;11.96;100.00
47897;BME280;39629;51.400;5.494;2023-05-21T02:10:56;101613.31;;;11.89;100.00
47897;BME280;39629;51.400;5.494;2023-05-21T02:15:58;101603.63;;;11.89;100.00
47897;BME280;39629;51.400;5.494;2023-05-21T02:21:00;101604.47;;;11.84;100.00
47897;BME280;39629;51.400;5.494;2023-05-21T02:26:04;101608.94;;;11.92;100.00
47897;BME280;39629;51.400;5.494;2023-05-21T02:31:06;101600.13;;;11.95;100.00
47897;BME280;39629;51.400;5.494;2023-05-21T02:36:07;101601.03;;;11.97;100.00
47897;BME280;39629;51.400;5.494;2023-05-21T02:41:13;101602.75;;;11.87;100.00
47897;BME280;39629;51.400;5.494;2023-05-21T02:46:15;101603.63;;;11.89;100.00
47897;BME280;39629;51.400;5.494;2023-05-21T02:51:17;101596.59;;;11.91;100.00
47897;BME280;39629;51.400;5.494;2023-05-21T02:56:20;101590.47;;;11.96;100.00
47897;BME280;39629;51.400;5.494;2023-05-21T03:01:22;101586.06;;;11.91;100.00
47897;BME280;39629;51.400;5.494;2023-05-21T03:06:23;101578.16;;;11.91;100.00
47897;BME280;39629;51.400;5.494;2023-05-21T03:11:26;101572.88;;;11.87;100.00
47897;BME280;39629;51.400;5.494;2023-05-21T03:16:28;101571.09;;;11.89;100.00
47897;BME280;39629;51.400;5.494;2023-05-21T03:21:33;101572.00;;;11.92;100.00
47897;BME280;39629;51.400;5.494;2023-05-21T03:26:36;101570.25;;;11.98;100.00
47897;BME280;39629;51.400;5.494;2023-05-21T03:31:38;101576.38;;;11.95;100.00
47897;BME280;39629;51.400;5.494;2023-05-21T03:36:43;101565.78;;;11.81;100.00
47897;BME280;39629;51.400;5.494;2023-05-21T03:41:46;101569.38;;;11.96;100.00
47897;BME280;39629;51.400;5.494;2023-05-21T03:46:58;101566.72;;;12.00;100.00
47897;BME280;39629;51.400;5.494;2023-05-21T03:52:03;101570.28;;;12.01;100.00
47897;BME280;39629;51.400;5.494;2023-05-21T03:57:07;101570.25;;;11.95;100.00
47897;BME280;39629;51.400;5.494;2023-05-21T04:02:08;101562.38;;;12.04;100.00
47897;BME280;39629;51.400;5.494;2023-05-21T04:07:10;101565.88;;;11.98;100.00
47897;BME280;39629;51.400;5.494;2023-05-21T04:12:16;101571.09;;;11.93;100.00
47897;BME280;39629;51.400;5.494;2023-05-21T04:17:19;101570.25;;;11.98;100.00
47897;BME280;39629;51.400;5.494;2023-05-21T04:22:21;101573.81;;;12.12;100.00
47897;BME280;39629;51.400;5.494;2023-05-21T04:27:28;101576.47;;;12.15;100.00
47897;BME280;39629;51.400;5.494;2023-05-21T04:32:31;101583.50;;;12.15;100.00
47897;BME280;39629;51.400;5.494;2023-05-21T04:37:34;101592.31;;;12.24;100.00
47897;BME280;39629;51.400;5.494;2023-05-21T04:42:37;101602.00;;;12.30;100.00
47897;BME280;39629;51.400;5.494;2023-05-21T04:47:42;101599.38;;;12.36;100.00
47897;BME280;39629;51.400;5.494;2023-05-21T04:52:44;101597.66;;;12.44;100.00
47897;BME280;39629;51.400;5.494;2023-05-21T04:57:47;101595.91;;;12.56;100.00
47897;BME280;39629;51.400;5.494;2023-05-21T05:02:48;101584.47;;;12.54;100.00
47897;BME280;39629;51.400;5.494;2023-05-21T05:07:50;101584.50;;;12.66;100.00
47897;BME280;39629;51.400;5.494;2023-05-21T05:12:53;101590.66;;;12.77;100.00
47897;BME280;39629;51.400;5.494;2023-05-21T05:17:55;101577.44;;;12.88;100.00
47897;BME280;39629;51.400;5.494;2023-05-21T05:22:56;101577.41;;;12.98;100.00
47897;BME280;39629;51.400;5.494;2023-05-21T05:28:00;101580.06;;;13.08;100.00
47897;BME280;39629;51.400;5.494;2023-05-21T05:33:01;101574.75;;;13.19;100.00
47897;BME280;39629;51.400;5.494;2023-05-21T05:38:04;101569.44;;;13.32;100.00
47897;BME280;39629;51.400;5.494;2023-05-21T05:43:09;101574.69;;;13.45;100.00
47897;BME280;39629;51.400;5.494;2023-05-21T05:48:11;101577.31;;;13.56;100.00
47897;BME280;39629;51.400;5.494;2023-05-21T05:53:13;101568.44;;;13.67;100.00
47897;BME280;39629;51.400;5.494;2023-05-21T05:58:16;101569.31;;;13.72;100.00
47897;BME280;39629;51.400;5.494;2023-05-21T06:03:38;101571.91;;;13.90;100.00
47897;BME280;39629;51.400;5.494;2023-05-21T06:08:45;101579.81;;;13.98;100.00
47897;BME280;39629;51.400;5.494;2023-05-21T06:13:48;101581.41;;;14.22;100.00
47897;BME280;39629;51.400;5.494;2023-05-21T06:18:51;101578.75;;;14.28;100.00
47897;BME280;39629;51.400;5.494;2023-05-21T06:23:52;101575.31;;;14.12;100.00
47897;BME280;39629;51.400;5.494;2023-05-21T06:28:55;101568.94;;;14.43;100.00
47897;BME280;39629;51.400;5.494;2023-05-21T06:33:58;101583.84;;;14.53;100.00
47897;BME280;39629;51.400;5.494;2023-05-21T06:39:00;101587.19;;;14.77;100.00
47897;BME280;39629;51.400;5.494;2023-05-21T06:44:04;101579.88;;;15.07;100.00
47897;BME280;39629;51.400;5.494;2023-05-21T06:49:35;101576.25;;;15.20;100.00
47897;BME280;39629;51.400;5.494;2023-05-21T06:54:36;101564.50;;;16.14;100.00
47897;BME280;39629;51.400;5.494;2023-05-21T06:59:41;101563.53;;;16.76;100.00
47897;BME280;39629;51.400;5.494;2023-05-21T07:04:42;101563.84;;;16.59;100.00
47897;BME280;39629;51.400;5.494;2023-05-21T07:09:44;101551.00;;;16.84;100.00
47897;BME280;39629;51.400;5.494;2023-05-21T07:14:47;101553.44;;;17.45;100.00
47897;BME280;39629;51.400;5.494;2023-05-21T07:19:49;101550.03;;;17.39;100.00
47897;BME280;39629;51.400;5.494;2023-05-21T07:24:50;101544.59;;;17.87;100.00
47897;BME280;39629;51.400;5.494;2023-05-21T07:29:53;101537.06;;;17.65;100.00
47897;BME280;39629;51.400;5.494;2023-05-21T07:34:58;101544.81;;;17.76;100.00
47897;BME280;39629;51.400;5.494;2023-05-21T07:40:01;101549.31;;;17.74;100.00
47897;BME280;39629;51.400;5.494;2023-05-21T07:45:06;101540.16;;;18.63;100.00
47897;BME280;39629;51.400;5.494;2023-05-21T07:50:13;101541.38;;;18.12;100.00
47897;BME280;39629;51.400;5.494;2023-05-21T07:55:15;101541.88;;;18.28;100.00
47897;BME280;39629;51.400;5.494;2023-05-21T08:00:22;101538.31;;;19.32;100.00
47897;BME280;39629;51.400;5.494;2023-05-21T08:05:27;101542.00;;;19.28;100.00
47897;BME280;39629;51.400;5.494;2023-05-21T08:10:29;101546.34;;;20.22;100.00
47897;BME280;39629;51.400;5.494;2023-05-21T08:15:32;101528.75;;;18.92;100.00
47897;BME280;39629;51.400;5.494;2023-05-21T08:20:34;101518.59;;;19.39;100.00
47897;BME280;39629;51.400;5.494;2023-05-21T08:25:36;101520.41;;;19.37;100.00
47897;BME280;39629;51.400;5.494;2023-05-21T08:30:40;101519.59;;;19.65;100.00
47897;BME280;39629;51.400;5.494;2023-05-21T08:35:41;101528.72;;;20.16;100.00
47897;BME280;39629;51.400;5.494;2023-05-21T08:40:53;101521.44;;;19.93;100.00
47897;BME280;39629;51.400;5.494;2023-05-21T08:45:59;101519.59;;;19.95;100.00
47897;BME280;39629;51.400;5.494;2023-05-21T08:51:07;101518.91;;;20.45;100.00
47897;BME280;39629;51.400;5.494;2023-05-21T08:56:15;101512.06;;;21.39;100.00
47897;BME280;39629;51.400;5.494;2023-05-21T09:01:31;101521.94;;;20.61;100.00
47897;BME280;39629;51.400;5.494;2023-05-21T09:06:45;101517.25;;;20.93;100.00
47897;BME280;39629;51.400;5.494;2023-05-21T09:11:47;101511.72;;;20.72;100.00
47897;BME280;39629;51.400;5.494;2023-05-21T09:16:51;101507.94;;;21.30;100.00
47897;BME280;39629;51.400;5.494;2023-05-21T09:21:53;101511.81;;;21.92;100.00
47897;BME280;39629;51.400;5.494;2023-05-21T09:26:58;101504.31;;;22.24;100.00
47897;BME280;39629;51.400;5.494;2023-05-21T09:32:06;101502.81;;;22.39;100.00
47897;BME280;39629;51.400;5.494;2023-05-21T09:37:09;101513.16;;;21.08;100.00
47897;BME280;39629;51.400;5.494;2023-05-21T09:42:12;101497.41;;;21.25;100.00
47897;BME280;39629;51.400;5.494;2023-05-21T09:47:19;101506.91;;;21.34;100.00
47897;BME280;39629;51.400;5.494;2023-05-21T09:52:22;101492.56;;;21.83;100.00
47897;BME280;39629;51.400;5.494;2023-05-21T09:57:25;101490.25;;;21.50;100.00
47897;BME280;39629;51.400;5.494;2023-05-21T10:02:29;101484.03;;;22.39;100.00
47897;BME280;39629;51.400;5.494;2023-05-21T10:07:32;101479.22;;;23.09;100.00
47897;BME280;39629;51.400;5.494;2023-05-21T10:12:35;101474.25;;;23.00;100.00
47897;BME280;39629;51.400;5.494;2023-05-21T10:17:39;101474.41;;;22.97;100.00
47897;BME280;39629;51.400;5.494;2023-05-21T10:22:41;101467.84;;;23.23;100.00
47897;BME280;39629;51.400;5.494;2023-05-21T10:27:44;101461.63;;;22.40;100.00
47897;BME280;39629;51.400;5.494;2023-05-21T10:32:48;101460.03;;;24.12;100.00
47897;BME280;39629;51.400;5.494;2023-05-21T10:37:50;101445.19;;;24.23;100.00
47897;BME280;39629;51.400;5.494;2023-05-21T10:43:24;101448.63;;;23.33;100.00
47897;BME280;39629;51.400;5.494;2023-05-21T10:48:47;101437.91;;;24.07;100.00
47897;BME280;39629;51.400;5.494;2023-05-21T10:54:21;101438.09;;;23.28;100.00
47897;BME280;39629;51.400;5.494;2023-05-21T10:59:35;101436.03;;;23.14;100.00
47897;BME280;39629;51.400;5.494;2023-05-21T11:04:43;101432.06;;;23.23;100.00
47897;BME280;39629;51.400;5.494;2023-05-21T11:09:49;101427.28;;;22.69;100.00
47897;BME280;39629;51.400;5.494;2023-05-21T11:14:55;101412.59;;;22.78;100.00
47897;BME280;39629;51.400;5.494;2023-05-21T11:20:03;101404.25;;;22.86;100.00
47897;BME280;39629;51.400;5.494;2023-05-21T11:25:07;101393.25;;;23.30;100.00
47897;BME280;39629;51.400;5.494;2023-05-21T11:30:14;101387.56;;;23.92;100.00
47897;BME280;39629;51.400;5.494;2023-05-21T11:35:21;101380.22;;;23.59;100.00
47897;BME280;39629;51.400;5.494;2023-05-21T11:40:24;101377.97;;;24.40;100.00
47897;BME280;39629;51.400;5.494;2023-05-21T11:45:31;101385.13;;;23.87;100.00
47897;BME280;39629;51.400;5.494;2023-05-21T11:50:34;101382.22;;;24.09;100.00
47897;BME280;39629;51.400;5.494;2023-05-21T11:55:37;101373.69;;;24.01;100.00
47897;BME280;39629;51.400;5.494;2023-05-21T12:00:39;101379.63;;;24.08;100.00
47897;BME280;39629;51.400;5.494;2023-05-21T12:05:45;101371.41;;;24.28;100.00
47897;BME280;39629;51.400;5.494;2023-05-21T12:10:47;101362.28;;;24.13;100.00
47897;BME280;39629;51.400;5.494;2023-05-21T12:15:49;101358.59;;;24.16;100.00
47897;BME280;39629;51.400;5.494;2023-05-21T12:20:52;101350.84;;;24.78;100.00
47897;BME280;39629;51.400;5.494;2023-05-21T12:25:53;101362.47;;;24.45;100.00
47897;BME280;39629;51.400;5.494;2023-05-21T12:30:55;101349.44;;;24.38;100.00
47897;BME280;39629;51.400;5.494;2023-05-21T12:35:58;101352.06;;;24.89;100.00
47897;BME280;39629;51.400;5.494;2023-05-21T12:41:02;101346.44;;;26.34;100.00
47897;BME280;39629;51.400;5.494;2023-05-21T12:46:04;101346.25;;;25.76;100.00
47897;BME280;39629;51.400;5.494;2023-05-21T12:51:07;101354.81;;;25.52;100.00
47897;BME280;39629;51.400;5.494;2023-05-21T12:56:09;101355.22;;;25.61;100.00
47897;BME280;39629;51.400;5.494;2023-05-21T13:01:11;101362.47;;;25.12;100.00
47897;BME280;39629;51.400;5.494;2023-05-21T13:06:14;101361.03;;;25.05;100.00
47897;BME280;39629;51.400;5.494;2023-05-21T13:11:15;101368.97;;;25.88;100.00
47897;BME280;39629;51.400;5.494;2023-05-21T13:16:17;101364.31;;;26.06;100.00
47897;BME280;39629;51.400;5.494;2023-05-21T13:21:22;101358.81;;;25.61;100.00
47897;BME280;39629;51.400;5.494;2023-05-21T13:26:24;101361.97;;;24.55;100.00
47897;BME280;39629;51.400;5.494;2023-05-21T13:31:25;101356.16;;;25.76;100.00
47897;BME280;39629;51.400;5.494;2023-05-21T13:36:29;101354.00;;;24.87;100.00
47897;BME280;39629;51.400;5.494;2023-05-21T13:41:31;101353.94;;;25.36;100.00
47897;BME280;39629;51.400;5.494;2023-05-21T13:46:32;101354.56;;;24.07;100.00
47897;BME280;39629;51.400;5.494;2023-05-21T13:51:39;101346.59;;;24.90;100.00
47897;BME280;39629;51.400;5.494;2023-05-21T13:56:41;101339.50;;;25.05;100.00
47897;BME280;39629;51.400;5.494;2023-05-21T14:01:43;101336.78;;;25.69;100.00
47897;BME280;39629;51.400;5.494;2023-05-21T14:06:46;101326.06;;;26.14;100.00
47897;BME280;39629;51.400;5.494;2023-05-21T14:11:48;101322.66;;;25.96;100.00
47897;BME280;39629;51.400;5.494;2023-05-21T14:16:50;101324.41;;;24.69;100.00
47897;BME280;39629;51.400;5.494;2023-05-21T14:21:53;101316.31;;;25.97;100.00
47897;BME280;39629;51.400;5.494;2023-05-21T14:26:55;101320.19;;;24.97;100.00
47897;BME280;39629;51.400;5.494;2023-05-21T14:31:57;101306.63;;;25.62;100.00
47897;BME280;39629;51.400;5.494;2023-05-21T14:37:00;101312.75;;;24.53;100.00
47897;BME280;39629;51.400;5.494;2023-05-21T14:42:02;101303.94;;;25.62;100.00
47897;BME280;39629;51.400;5.494;2023-05-21T14:47:03;101297.97;;;25.41;100.00
47897;BME280;39629;51.400;5.494;2023-05-21T14:52:06;101289.22;;;25.68;100.00
47897;BME280;39629;51.400;5.494;2023-05-21T14:57:08;101286.94;;;25.76;100.00
47897;BME280;39629;51.400;5.494;2023-05-21T15:02:09;101284.91;;;25.96;100.00
47897;BME280;39629;51.400;5.494;2023-05-21T15:07:12;101294.22;;;24.80;100.00
47897;BME280;39629;51.400;5.494;2023-05-21T15:12:14;101281.56;;;24.98;100.00
47897;BME280;39629;51.400;5.494;2023-05-21T15:17:16;101288.06;;;25.42;100.00
47897;BME280;39629;51.400;5.494;2023-05-21T15:22:18;101279.78;;;25.91;100.00
47897;BME280;39629;51.400;5.494;2023-05-21T15:27:20;101276.72;;;25.67;100.00
47897;BME280;39629;51.400;5.494;2023-05-21T15:32:22;101274.94;;;25.51;100.00
47897;BME280;39629;51.400;5.494;2023-05-21T15:37:26;101282.41;;;25.46;100.00
47897;BME280;39629;51.400;5.494;2023-05-21T15:42:31;101282.84;;;25.07;100.00
47897;BME280;39629;51.400;5.494;2023-05-21T15:47:32;101289.47;;;25.01;100.00
47897;BME280;39629;51.400;5.494;2023-05-21T15:52:35;101287.13;;;24.95;100.00
47897;BME280;39629;51.400;5.494;2023-05-21T15:57:37;101279.94;;;25.11;100.00
47897;BME280;39629;51.400;5.494;2023-05-21T16:02:39;101285.28;;;24.95;100.00
47897;BME280;39629;51.400;5.494;2023-05-21T16:07:42;101284.06;;;25.01;100.00
47897;BME280;39629;51.400;5.494;2023-05-21T16:12:43;101288.09;;;24.27;100.00
47897;BME280;39629;51.400;5.494;2023-05-21T16:17:45;101292.59;;;24.44;100.00
47897;BME280;39629;51.400;5.494;2023-05-21T16:22:48;101295.13;;;24.47;100.00
47897;BME280;39629;51.400;5.494;2023-05-21T16:27:50;101281.22;;;24.39;100.00
47897;BME280;39629;51.400;5.494;2023-05-21T16:32:52;101284.88;;;24.20;100.00
47897;BME280;39629;51.400;5.494;2023-05-21T16:37:54;101292.38;;;23.96;100.00
47897;BME280;39629;51.400;5.494;2023-05-21T16:42:56;101285.03;;;23.99;100.00
47897;BME280;39629;51.400;5.494;2023-05-21T16:47:58;101286.88;;;23.81;100.00
47897;BME280;39629;51.400;5.494;2023-05-21T16:53:01;101290.66;;;23.95;100.00
47897;BME280;39629;51.400;5.494;2023-05-21T16:58:03;101293.19;;;23.63;100.00
47897;BME280;39629;51.400;5.494;2023-05-21T17:03:05;101281.75;;;23.77;100.00
47897;BME280;39629;51.400;5.494;2023-05-21T17:08:08;101286.84;;;23.64;100.00
47897;BME280;39629;51.400;5.494;2023-05-21T17:13:09;101285.75;;;23.68;100.00
47897;BME280;39629;51.400;5.494;2023-05-21T17:18:11;101295.66;;;23.48;100.00
47897;BME280;39629;51.400;5.494;2023-05-21T17:23:14;101291.53;;;23.24;100.00
47897;BME280;39629;51.400;5.494;2023-05-21T17:28:16;101291.28;;;23.46;100.00
47897;BME280;39629;51.400;5.494;2023-05-21T17:33:18;101290.06;;;23.17;100.00
47897;BME280;39629;51.400;5.494;2023-05-21T17:38:21;101288.34;;;23.16;100.00
47897;BME280;39629;51.400;5.494;2023-05-21T17:43:23;101280.91;;;23.21;100.00
47897;BME280;39629;51.400;5.494;2023-05-21T17:48:26;101295.41;;;23.17;100.00
47897;BME280;39629;51.400;5.494;2023-05-21T17:53:29;101289.94;;;23.01;100.00
47897;BME280;39629;51.400;5.494;2023-05-21T17:58:30;101290.13;;;22.96;100.00
47897;BME280;39629;51.400;5.494;2023-05-21T18:03:32;101295.25;;;22.81;100.00
47897;BME280;39629;51.400;5.494;2023-05-21T18:08:35;101296.19;;;22.80;100.00
47897;BME280;39629;51.400;5.494;2023-05-21T18:13:36;101289.81;;;22.64;100.00
47897;BME280;39629;51.400;5.494;2023-05-21T18:18:38;101299.00;;;22.58;100.00
47897;BME280;39629;51.400;5.494;2023-05-21T18:23:41;101298.56;;;22.49;100.00
47897;BME280;39629;51.400;5.494;2023-05-21T18:28:43;101302.91;;;22.51;100.00
47897;BME280;39629;51.400;5.494;2023-05-21T18:33:44;101306.38;;;22.34;100.00
47897;BME280;39629;51.400;5.494;2023-05-21T18:38:47;101308.22;;;22.32;100.00
47897;BME280;39629;51.400;5.494;2023-05-21T18:43:49;101310.28;;;22.27;100.00
47897;BME280;39629;51.400;5.494;2023-05-21T18:48:51;101307.94;;;21.97;100.00
47897;BME280;39629;51.400;5.494;2023-05-21T18:53:53;101306.19;;;21.96;100.00
47897;BME280;39629;51.400;5.494;2023-05-21T18:58:55;101300.44;;;21.85;100.00
47897;BME280;39629;51.400;5.494;2023-05-21T19:03:58;101292.13;;;21.70;100.00
47897;BME280;39629;51.400;5.494;2023-05-21T19:09:01;101294.69;;;21.51;100.00
47897;BME280;39629;51.400;5.494;2023-05-21T19:14:02;101292.47;;;21.40;100.00
47897;BME280;39629;51.400;5.494;2023-05-21T19:19:04;101301.81;;;21.30;100.00
47897;BME280;39629;51.400;5.494;2023-05-21T19:24:07;101297.28;;;21.08;100.00
47897;BME280;39629;51.400;5.494;2023-05-21T19:29:09;101307.94;;;20.86;100.00
47897;BME280;39629;51.400;5.494;2023-05-21T19:34:11;101322.50;;;20.79;100.00
47897;BME280;39629;51.400;5.494;2023-05-21T19:39:14;101320.22;;;20.68;100.00
47897;BME280;39629;51.400;5.494;2023-05-21T19:44:15;101331.47;;;20.53;100.00
47897;BME280;39629;51.400;5.494;2023-05-21T19:49:17;101325.19;;;20.30;100.00
47897;BME280;39629;51.400;5.494;2023-05-21T19:54:21;101340.09;;;20.11;100.00
47897;BME280;39629;51.400;5.494;2023-05-21T19:59:22;101335.28;;;19.95;100.00
47897;BME280;39629;51.400;5.494;2023-05-21T20:04:24;101337.56;;;19.79;100.00
47897;BME280;39629;51.400;5.494;2023-05-21T20:09:27;101331.00;;;19.63;100.00
47897;BME280;39629;51.400;5.494;2023-05-21T20:14:28;101328.88;;;19.46;100.00
47897;BME280;39629;51.400;5.494;2023-05-21T20:19:33;101332.00;;;19.30;100.00
47897;BME280;39629;51.400;5.494;2023-05-21T20:24:36;101336.88;;;19.17;100.00
47897;BME280;39629;51.400;5.494;2023-05-21T20:29:37;101335.53;;;19.02;100.00
47897;BME280;39629;51.400;5.494;2023-05-21T20:34:42;101333.13;;;18.93;100.00
47897;BME280;39629;51.400;5.494;2023-05-21T20:39:45;101335.25;;;18.82;100.00
47897;BME280;39629;51.400;5.494;2023-05-21T20:44:47;101338.22;;;18.71;100.00
47897;BME280;39629;51.400;5.494;2023-05-21T20:49:49;101344.78;;;18.59;100.00
47897;BME280;39629;51.400;5.494;2023-05-21T20:54:54;101334.34;;;18.51;100.00
47897;BME280;39629;51.400;5.494;2023-05-21T20:59:58;101333.19;;;18.27;100.00
47897;BME280;39629;51.400;5.494;2023-05-21T21:05:00;101344.31;;;18.09;100.00
47897;BME280;39629;51.400;5.494;2023-05-21T21:10:05;101336.91;;;17.87;100.00
47897;BME280;39629;51.400;5.494;2023-05-21T21:15:07;101334.47;;;17.78;100.00
47897;BME280;39629;51.400;5.494;2023-05-21T21:20:09;101346.44;;;17.60;100.00
47897;BME280;39629;51.400;5.494;2023-05-21T21:25:14;101345.78;;;17.50;100.00
47897;BME280;39629;51.400;5.494;2023-05-21T21:30:15;101347.88;;;17.35;100.00
47897;BME280;39629;51.400;5.494;2023-05-21T21:35:17;101346.28;;;17.28;100.00
47897;BME280;39629;51.400;5.494;2023-05-21T21:40:20;101346.38;;;17.22;100.00
47897;BME280;39629;51.400;5.494;2023-05-21T21:45:21;101343.09;;;17.11;100.00
47897;BME280;39629;51.400;5.494;2023-05-21T21:50:23;101341.53;;;17.00;100.00
47897;BME280;39629;51.400;5.494;2023-05-21T21:55:27;101349.66;;;16.94;100.00
47897;BME280;39629;51.400;5.494;2023-05-21T22:00:28;101354.19;;;16.89;100.00
47897;BME280;39629;51.400;5.494;2023-05-21T22:05:30;101343.81;;;16.77;100.00
47897;BME280;39629;51.400;5.494;2023-05-21T22:10:33;101357.22;;;16.71;100.00
47897;BME280;39629;51.400;5.494;2023-05-21T22:15:37;101344.91;;;16.66;100.00
47897;BME280;39629;51.400;5.494;2023-05-21T22:20:38;101346.00;;;16.56;100.00
47897;BME280;39629;51.400;5.494;2023-05-21T22:25:41;101350.50;;;16.52;100.00
47897;BME280;39629;51.400;5.494;2023-05-21T22:30:43;101348.88;;;16.45;100.00
47897;BME280;39629;51.400;5.494;2023-05-21T22:35:44;101337.50;;;16.37;100.00
47897;BME280;39629;51.400;5.494;2023-05-21T22:40:47;101330.50;;;16.33;100.00
47897;BME280;39629;51.400;5.494;2023-05-21T22:45:49;101332.38;;;16.26;100.00
47897;BME280;39629;51.400;5.494;2023-05-21T22:50:51;101328.94;;;16.19;100.00
47897;BME280;39629;51.400;5.494;2023-05-21T22:55:55;101335.19;;;16.17;100.00
47897;BME280;39629;51.400;5.494;2023-05-21T23:00:56;101331.63;;;16.18;100.00
47897;BME280;39629;51.400;5.494;2023-05-21T23:05:58;101338.81;;;16.11;100.00
47897;BME280;39629;51.400;5.494;2023-05-21T23:11:01;101338.94;;;16.05;100.00
47897;BME280;39629;51.400;5.494;2023-05-21T23:16:02;101337.22;;;16.02;100.00
47897;BME280;39629;51.400;5.494;2023-05-21T23:21:05;101343.47;;;15.98;100.00
47897;BME280;39629;51.400;5.494;2023-05-21T23:26:08;101347.13;;;15.93;100.00
47897;BME280;39629;51.400;5.494;2023-05-21T23:31:10;101339.31;;;15.83;100.00
47897;BME280;39629;51.400;5.494;2023-05-21T23:36:11;101329.63;;;15.79;100.00
47897;BME280;39629;51.400;5.494;2023-05-21T23:41:14;101327.13;;;15.72;100.00
47897;BME280;39629;51.400;5.494;2023-05-21T23:46:16;101329.81;;;15.68;100.00
47897;BME280;39629;51.400;5.494;2023-05-21T23:51:17;101329.13;;;15.56;100.00
47897;BME280;39629;51.400;5.494;2023-05-21T23:56:20;101334.59;;;15.48;100.00
